RYR812 EIDW-EGPH
Flight info
| Callsign | RYR812 |
|---|---|
| Flight time | 0h 48m |
| Altitude | 25000 |
| Route | ROTEV3J ROTEV P600 TUNSO |
| Aircraft | B738/M-SDE2E3FGHIRWXY/LB1 |
Departure
| Time | 2026-05-07 05:36 |
|---|---|
| Airport | Dublin Airport (EIDW) |
Arrival
| Time | 2026-05-07 06:24 |
|---|---|
| Airport | Edinburgh Airport (EGPH) |
| Time | Latitude | Longitude | Altitude | Speed | Heading |
|---|---|---|---|---|---|
| 2026-05-07 05:22 | 53.43004 | -6.24878 | 213 ft | 0 kts | 5° |
| 2026-05-07 05:23 | 53.43001 | -6.24879 | 210 ft | 3 kts | 5° |
| 2026-05-07 05:23 | 53.42975 | -6.24883 | 210 ft | 4 kts | 5° |
| 2026-05-07 05:23 | 53.42952 | -6.24885 | 218 ft | 4 kts | 320° |
| 2026-05-07 05:24 | 53.42944 | -6.24853 | 215 ft | 2 kts | 275° |
| 2026-05-07 05:24 | 53.42942 | -6.24815 | 210 ft | 4 kts | 275° |
| 2026-05-07 05:24 | 53.42940 | -6.24770 | 220 ft | 4 kts | 275° |
| 2026-05-07 05:24 | 53.42938 | -6.24747 | 215 ft | 0 kts | 275° |
| 2026-05-07 05:26 | 53.42939 | -6.24752 | 216 ft | 1 kts | 275° |
| 2026-05-07 05:26 | 53.42940 | -6.24786 | 221 ft | 5 kts | 275° |
| 2026-05-07 05:27 | 53.42944 | -6.24857 | 216 ft | 8 kts | 275° |
| 2026-05-07 05:27 | 53.42950 | -6.24962 | 210 ft | 10 kts | 277° |
| 2026-05-07 05:27 | 53.42957 | -6.25088 | 214 ft | 6 kts | 273° |
| 2026-05-07 05:27 | 53.42961 | -6.25169 | 210 ft | 7 kts | 274° |
| 2026-05-07 05:28 | 53.42918 | -6.25225 | 210 ft | 12 kts | 172° |
| 2026-05-07 05:28 | 53.42829 | -6.25160 | 211 ft | 10 kts | 157° |
| 2026-05-07 05:28 | 53.42776 | -6.25125 | 210 ft | 6 kts | 169° |
| 2026-05-07 05:28 | 53.42734 | -6.25125 | 210 ft | 6 kts | 174° |
| 2026-05-07 05:29 | 53.42694 | -6.25102 | 216 ft | 7 kts | 157° |
| 2026-05-07 05:29 | 53.42641 | -6.25065 | 212 ft | 9 kts | 156° |
| 2026-05-07 05:29 | 53.42571 | -6.25014 | 214 ft | 13 kts | 156° |
| 2026-05-07 05:29 | 53.42480 | -6.24947 | 212 ft | 16 kts | 156° |
| 2026-05-07 05:30 | 53.42372 | -6.24869 | 214 ft | 18 kts | 157° |
| 2026-05-07 05:30 | 53.42278 | -6.24801 | 215 ft | 11 kts | 154° |
| 2026-05-07 05:30 | 53.42224 | -6.24761 | 212 ft | 7 kts | 158° |
| 2026-05-07 05:30 | 53.42178 | -6.24745 | 212 ft | 7 kts | 183° |
| 2026-05-07 05:31 | 53.42144 | -6.24772 | 218 ft | 1 kts | 221° |
| 2026-05-07 05:31 | 53.42137 | -6.24783 | 214 ft | 1 kts | 223° |
| 2026-05-07 05:31 | 53.42131 | -6.24794 | 210 ft | 1 kts | 224° |
| 2026-05-07 05:31 | 53.42124 | -6.24804 | 210 ft | 1 kts | 225° |
| 2026-05-07 05:32 | 53.42124 | -6.24805 | 210 ft | 0 kts | 225° |
| 2026-05-07 05:34 | 53.42114 | -6.24823 | 210 ft | 4 kts | 225° |
| 2026-05-07 05:35 | 53.42078 | -6.24882 | 210 ft | 10 kts | 225° |
| 2026-05-07 05:35 | 53.42031 | -6.24979 | 212 ft | 10 kts | 255° |
| 2026-05-07 05:35 | 53.42027 | -6.25088 | 214 ft | 9 kts | 274° |
| 2026-05-07 05:35 | 53.42036 | -6.25288 | 215 ft | 44 kts | 275° |
| 2026-05-07 05:36 | 53.42088 | -6.26226 | 214 ft | 116 kts | 275° |
| 2026-05-07 05:36 | 53.42171 | -6.27913 | 267 ft | 169 kts | 273° |
| 2026-05-07 05:36 | 53.42284 | -6.29937 | 947 ft | 175 kts | 274° |
| 2026-05-07 05:36 | 53.42415 | -6.31949 | 1888 ft | 173 kts | 273° |
| 2026-05-07 05:37 | 53.42536 | -6.33959 | 2680 ft | 179 kts | 272° |
| 2026-05-07 05:37 | 53.42616 | -6.35362 | 3081 ft | 189 kts | 271° |
| 2026-05-07 05:37 | 53.42795 | -6.38412 | 4066 ft | 193 kts | 272° |
| 2026-05-07 05:37 | 53.42939 | -6.40596 | 5020 ft | 186 kts | 272° |
| 2026-05-07 05:38 | 53.43022 | -6.42065 | 5526 ft | 190 kts | 272° |
| 2026-05-07 05:38 | 53.43192 | -6.44346 | 6033 ft | 205 kts | 285° |
| 2026-05-07 05:38 | 53.44058 | -6.46374 | 6254 ft | 231 kts | 324° |
| 2026-05-07 05:38 | 53.45618 | -6.47124 | 6695 ft | 239 kts | 4° |
| 2026-05-07 05:39 | 53.47159 | -6.46436 | 7693 ft | 218 kts | 19° |
| 2026-05-07 05:39 | 53.48581 | -6.45639 | 8481 ft | 215 kts | 16° |
| 2026-05-07 05:39 | 53.50070 | -6.44946 | 8867 ft | 230 kts | 13° |
| 2026-05-07 05:39 | 53.51718 | -6.44281 | 8980 ft | 260 kts | 12° |
| 2026-05-07 05:40 | 53.53569 | -6.43596 | 9005 ft | 289 kts | 11° |
| 2026-05-07 05:40 | 53.55558 | -6.42889 | 8995 ft | 296 kts | 11° |
| 2026-05-07 05:40 | 53.57579 | -6.42171 | 9671 ft | 296 kts | 13° |
| 2026-05-07 05:40 | 53.59534 | -6.40966 | 10473 ft | 300 kts | 24° |
| 2026-05-07 05:41 | 53.61449 | -6.39360 | 10686 ft | 324 kts | 27° |
| 2026-05-07 05:41 | 53.63503 | -6.37541 | 11017 ft | 341 kts | 27° |
| 2026-05-07 05:41 | 53.65632 | -6.35670 | 11644 ft | 348 kts | 26° |
| 2026-05-07 05:41 | 53.67825 | -6.33779 | 12392 ft | 352 kts | 26° |
| 2026-05-07 05:42 | 53.70029 | -6.31912 | 13145 ft | 356 kts | 25° |
| 2026-05-07 05:42 | 53.72260 | -6.30038 | 13903 ft | 361 kts | 25° |
| 2026-05-07 05:42 | 53.74523 | -6.28141 | 14605 ft | 365 kts | 25° |
| 2026-05-07 05:42 | 53.76815 | -6.26249 | 15346 ft | 368 kts | 24° |
| 2026-05-07 05:43 | 53.79166 | -6.24451 | 16052 ft | 373 kts | 22° |
| 2026-05-07 05:43 | 53.81552 | -6.22684 | 16813 ft | 376 kts | 22° |
| 2026-05-07 05:43 | 53.83966 | -6.20902 | 17497 ft | 382 kts | 22° |
| 2026-05-07 05:43 | 53.86409 | -6.19085 | 18230 ft | 385 kts | 23° |
| 2026-05-07 05:44 | 53.88870 | -6.17241 | 18868 ft | 388 kts | 23° |
| 2026-05-07 05:44 | 53.91344 | -6.15376 | 19534 ft | 390 kts | 23° |
| 2026-05-07 05:44 | 53.93825 | -6.13498 | 20311 ft | 389 kts | 23° |
| 2026-05-07 05:44 | 53.96274 | -6.11639 | 21207 ft | 384 kts | 23° |
| 2026-05-07 05:45 | 53.98700 | -6.09797 | 22061 ft | 381 kts | 22° |
| 2026-05-07 05:45 | 54.01120 | -6.07957 | 22765 ft | 380 kts | 23° |
| 2026-05-07 05:45 | 54.03524 | -6.06120 | 22960 ft | 377 kts | 23° |
| 2026-05-07 05:45 | 54.05913 | -6.04212 | 23106 ft | 383 kts | 25° |
| 2026-05-07 05:46 | 54.08322 | -6.02239 | 23743 ft | 384 kts | 24° |
| 2026-05-07 05:46 | 54.10710 | -6.00271 | 24481 ft | 379 kts | 24° |
| 2026-05-07 05:46 | 54.13096 | -5.98303 | 24833 ft | 381 kts | 24° |
| 2026-05-07 05:46 | 54.15477 | -5.96341 | 24961 ft | 381 kts | 24° |
| 2026-05-07 05:47 | 54.17859 | -5.94381 | 24960 ft | 378 kts | 24° |
| 2026-05-07 05:47 | 54.20221 | -5.92436 | 24955 ft | 375 kts | 24° |
| 2026-05-07 05:47 | 54.22571 | -5.90502 | 24965 ft | 375 kts | 24° |
| 2026-05-07 05:47 | 54.24924 | -5.88563 | 24968 ft | 376 kts | 24° |
| 2026-05-07 05:48 | 54.27283 | -5.86619 | 24966 ft | 376 kts | 24° |
| 2026-05-07 05:48 | 54.29640 | -5.84674 | 24963 ft | 377 kts | 24° |
| 2026-05-07 05:48 | 54.32006 | -5.82717 | 24959 ft | 377 kts | 24° |
| 2026-05-07 05:48 | 54.34367 | -5.80764 | 24959 ft | 377 kts | 24° |
| 2026-05-07 05:49 | 54.36731 | -5.78804 | 24969 ft | 378 kts | 24° |
| 2026-05-07 05:49 | 54.39101 | -5.76837 | 24968 ft | 378 kts | 24° |
| 2026-05-07 05:49 | 54.41463 | -5.74874 | 24965 ft | 378 kts | 24° |
| 2026-05-07 05:49 | 54.43835 | -5.72901 | 24961 ft | 378 kts | 24° |
| 2026-05-07 05:50 | 54.46199 | -5.70931 | 24964 ft | 378 kts | 24° |
| 2026-05-07 05:50 | 54.48562 | -5.68960 | 24966 ft | 378 kts | 24° |
| 2026-05-07 05:50 | 54.50927 | -5.66984 | 24950 ft | 377 kts | 24° |
| 2026-05-07 05:50 | 54.53288 | -5.65010 | 24968 ft | 377 kts | 24° |
| 2026-05-07 05:51 | 54.55648 | -5.63034 | 24965 ft | 377 kts | 24° |
| 2026-05-07 05:51 | 54.58004 | -5.61057 | 24933 ft | 377 kts | 25° |
| 2026-05-07 05:51 | 54.60259 | -5.58745 | 24955 ft | 378 kts | 36° |
| 2026-05-07 05:51 | 54.62276 | -5.55843 | 24955 ft | 374 kts | 40° |
| 2026-05-07 05:52 | 54.64207 | -5.52878 | 24771 ft | 370 kts | 40° |
| 2026-05-07 05:52 | 54.66112 | -5.49923 | 24516 ft | 367 kts | 40° |
| 2026-05-07 05:52 | 54.68007 | -5.46991 | 24188 ft | 365 kts | 40° |
| 2026-05-07 05:52 | 54.69921 | -5.44047 | 23880 ft | 362 kts | 40° |
| 2026-05-07 05:53 | 54.71780 | -5.41202 | 23557 ft | 361 kts | 40° |
| 2026-05-07 05:53 | 54.73656 | -5.38336 | 23165 ft | 359 kts | 39° |
| 2026-05-07 05:53 | 54.75522 | -5.35488 | 22796 ft | 357 kts | 40° |
| 2026-05-07 05:53 | 54.77377 | -5.32654 | 22445 ft | 354 kts | 40° |
| 2026-05-07 05:54 | 54.79219 | -5.29838 | 22109 ft | 352 kts | 40° |
| 2026-05-07 05:54 | 54.81072 | -5.27002 | 21771 ft | 350 kts | 40° |
| 2026-05-07 05:54 | 54.82862 | -5.24260 | 21444 ft | 347 kts | 40° |
| 2026-05-07 05:54 | 54.84669 | -5.21487 | 21119 ft | 345 kts | 40° |
| 2026-05-07 05:55 | 54.86486 | -5.18696 | 20795 ft | 344 kts | 40° |
| 2026-05-07 05:55 | 54.88306 | -5.16029 | 20465 ft | 341 kts | 34° |
| 2026-05-07 05:55 | 54.90345 | -5.13972 | 20155 ft | 338 kts | 24° |
| 2026-05-07 05:55 | 54.92450 | -5.12176 | 19820 ft | 337 kts | 23° |
| 2026-05-07 05:56 | 54.94560 | -5.10404 | 19489 ft | 336 kts | 23° |
| 2026-05-07 05:56 | 54.96661 | -5.08628 | 19173 ft | 336 kts | 24° |
| 2026-05-07 05:56 | 54.98758 | -5.06835 | 18837 ft | 335 kts | 24° |
| 2026-05-07 05:56 | 55.00843 | -5.05036 | 18529 ft | 335 kts | 24° |
| 2026-05-07 05:57 | 55.02928 | -5.03228 | 18203 ft | 335 kts | 24° |
| 2026-05-07 05:57 | 55.05016 | -5.01412 | 17839 ft | 334 kts | 24° |
| 2026-05-07 05:57 | 55.07090 | -4.99604 | 17483 ft | 333 kts | 24° |
| 2026-05-07 05:57 | 55.09157 | -4.97799 | 17185 ft | 331 kts | 25° |
| 2026-05-07 05:58 | 55.10997 | -4.95422 | 16882 ft | 330 kts | 49° |
| 2026-05-07 05:58 | 55.12200 | -4.92061 | 16746 ft | 326 kts | 65° |
| 2026-05-07 05:58 | 55.13122 | -4.88458 | 16568 ft | 325 kts | 67° |
| 2026-05-07 05:58 | 55.14012 | -4.84809 | 16379 ft | 328 kts | 68° |
| 2026-05-07 05:59 | 55.14903 | -4.81122 | 16212 ft | 331 kts | 68° |
| 2026-05-07 05:59 | 55.15800 | -4.77418 | 16008 ft | 330 kts | 68° |
| 2026-05-07 05:59 | 55.16696 | -4.73739 | 15824 ft | 328 kts | 67° |
| 2026-05-07 05:59 | 55.17595 | -4.70069 | 15642 ft | 326 kts | 67° |
| 2026-05-07 06:00 | 55.18488 | -4.66428 | 15461 ft | 325 kts | 67° |
| 2026-05-07 06:00 | 55.19379 | -4.62802 | 15278 ft | 323 kts | 67° |
| 2026-05-07 06:00 | 55.20265 | -4.59198 | 15110 ft | 322 kts | 67° |
| 2026-05-07 06:00 | 55.21148 | -4.55599 | 14935 ft | 321 kts | 67° |
| 2026-05-07 06:01 | 55.22027 | -4.52019 | 14756 ft | 320 kts | 68° |
| 2026-05-07 06:01 | 55.22903 | -4.48442 | 14581 ft | 319 kts | 67° |
| 2026-05-07 06:01 | 55.23775 | -4.44880 | 14404 ft | 318 kts | 67° |
| 2026-05-07 06:01 | 55.24647 | -4.41313 | 14224 ft | 318 kts | 68° |
| 2026-05-07 06:02 | 55.25513 | -4.37761 | 14054 ft | 317 kts | 68° |
| 2026-05-07 06:02 | 55.26377 | -4.34212 | 13880 ft | 316 kts | 68° |
| 2026-05-07 06:02 | 55.27241 | -4.30660 | 13709 ft | 316 kts | 68° |
| 2026-05-07 06:02 | 55.28103 | -4.27107 | 13503 ft | 316 kts | 68° |
| 2026-05-07 06:03 | 55.28961 | -4.23568 | 13324 ft | 316 kts | 68° |
| 2026-05-07 06:03 | 55.29817 | -4.20033 | 13144 ft | 314 kts | 68° |
| 2026-05-07 06:03 | 55.30668 | -4.16509 | 12974 ft | 313 kts | 68° |
| 2026-05-07 06:03 | 55.31517 | -4.12993 | 12799 ft | 312 kts | 68° |
| 2026-05-07 06:04 | 55.32358 | -4.09497 | 12627 ft | 310 kts | 68° |
| 2026-05-07 06:04 | 55.33196 | -4.06015 | 12447 ft | 309 kts | 68° |
| 2026-05-07 06:04 | 55.34031 | -4.02534 | 12291 ft | 309 kts | 68° |
| 2026-05-07 06:04 | 55.34873 | -3.99019 | 12109 ft | 308 kts | 69° |
| 2026-05-07 06:05 | 55.35704 | -3.95549 | 11947 ft | 308 kts | 68° |
| 2026-05-07 06:05 | 55.36531 | -3.92086 | 11789 ft | 307 kts | 68° |
| 2026-05-07 06:05 | 55.37345 | -3.88673 | 11619 ft | 307 kts | 68° |
| 2026-05-07 06:05 | 55.38168 | -3.85216 | 11450 ft | 306 kts | 68° |
| 2026-05-07 06:06 | 55.38989 | -3.81761 | 11279 ft | 306 kts | 68° |
| 2026-05-07 06:06 | 55.39811 | -3.78300 | 11104 ft | 306 kts | 68° |
| 2026-05-07 06:06 | 55.40626 | -3.74864 | 10936 ft | 303 kts | 68° |
| 2026-05-07 06:06 | 55.41431 | -3.71461 | 10771 ft | 299 kts | 68° |
| 2026-05-07 06:07 | 55.42224 | -3.68102 | 10598 ft | 296 kts | 68° |
| 2026-05-07 06:07 | 55.43013 | -3.64758 | 10450 ft | 295 kts | 68° |
| 2026-05-07 06:07 | 55.43798 | -3.61424 | 10284 ft | 295 kts | 68° |
| 2026-05-07 06:07 | 55.44583 | -3.58084 | 10118 ft | 294 kts | 68° |
| 2026-05-07 06:08 | 55.45358 | -3.54784 | 9958 ft | 289 kts | 69° |
| 2026-05-07 06:08 | 55.46121 | -3.51529 | 9789 ft | 286 kts | 69° |
| 2026-05-07 06:08 | 55.46880 | -3.48290 | 9619 ft | 286 kts | 69° |
| 2026-05-07 06:08 | 55.47639 | -3.45047 | 9470 ft | 287 kts | 69° |
| 2026-05-07 06:09 | 55.48401 | -3.41779 | 9300 ft | 288 kts | 69° |
| 2026-05-07 06:09 | 55.49165 | -3.38499 | 9143 ft | 289 kts | 69° |
| 2026-05-07 06:09 | 55.50158 | -3.35427 | 8947 ft | 292 kts | 45° |
| 2026-05-07 06:09 | 55.51774 | -3.33308 | 8822 ft | 289 kts | 29° |
| 2026-05-07 06:10 | 55.53515 | -3.31590 | 8659 ft | 285 kts | 27° |
| 2026-05-07 06:10 | 55.55252 | -3.29937 | 8475 ft | 282 kts | 27° |
| 2026-05-07 06:10 | 55.56964 | -3.28306 | 8323 ft | 278 kts | 27° |
| 2026-05-07 06:10 | 55.58667 | -3.26670 | 8173 ft | 278 kts | 27° |
| 2026-05-07 06:11 | 55.60360 | -3.25028 | 8022 ft | 278 kts | 27° |
| 2026-05-07 06:11 | 55.62052 | -3.23377 | 7875 ft | 278 kts | 28° |
| 2026-05-07 06:11 | 55.63744 | -3.21719 | 7720 ft | 278 kts | 28° |
| 2026-05-07 06:11 | 55.65434 | -3.20058 | 7553 ft | 278 kts | 28° |
| 2026-05-07 06:12 | 55.67124 | -3.18394 | 7404 ft | 278 kts | 28° |
| 2026-05-07 06:12 | 55.68813 | -3.16728 | 7240 ft | 278 kts | 28° |
| 2026-05-07 06:12 | 55.70495 | -3.15068 | 7089 ft | 274 kts | 28° |
| 2026-05-07 06:12 | 55.72036 | -3.13150 | 6910 ft | 270 kts | 45° |
| 2026-05-07 06:13 | 55.72890 | -3.11530 | 6798 ft | 266 kts | 48° |
| 2026-05-07 06:13 | 55.74117 | -3.09033 | 6606 ft | 262 kts | 49° |
| 2026-05-07 06:13 | 55.75300 | -3.06610 | 6442 ft | 258 kts | 50° |
| 2026-05-07 06:13 | 55.76483 | -3.04222 | 6267 ft | 257 kts | 49° |
| 2026-05-07 06:14 | 55.77666 | -3.01844 | 6098 ft | 257 kts | 49° |
| 2026-05-07 06:14 | 55.78844 | -2.99474 | 5922 ft | 256 kts | 49° |
| 2026-05-07 06:14 | 55.80017 | -2.97105 | 5794 ft | 254 kts | 49° |
| 2026-05-07 06:14 | 55.81180 | -2.94747 | 5647 ft | 254 kts | 49° |
| 2026-05-07 06:15 | 55.82336 | -2.92395 | 5538 ft | 252 kts | 49° |
| 2026-05-07 06:15 | 55.83495 | -2.90030 | 5413 ft | 255 kts | 49° |
| 2026-05-07 06:15 | 55.84664 | -2.87637 | 5296 ft | 258 kts | 49° |
| 2026-05-07 06:15 | 55.85840 | -2.85222 | 5202 ft | 258 kts | 49° |
| 2026-05-07 06:16 | 55.87026 | -2.82838 | 5108 ft | 256 kts | 43° |
| 2026-05-07 06:16 | 55.88580 | -2.81452 | 5011 ft | 251 kts | 5° |
| 2026-05-07 06:16 | 55.90254 | -2.82025 | 4888 ft | 247 kts | 326° |
| 2026-05-07 06:16 | 55.91583 | -2.83909 | 4810 ft | 244 kts | 317° |
| 2026-05-07 06:17 | 55.92875 | -2.85885 | 4651 ft | 245 kts | 316° |
| 2026-05-07 06:17 | 55.94163 | -2.87852 | 4501 ft | 241 kts | 316° |
| 2026-05-07 06:17 | 55.95424 | -2.89765 | 4364 ft | 235 kts | 316° |
| 2026-05-07 06:17 | 55.96660 | -2.91628 | 4224 ft | 229 kts | 316° |
| 2026-05-07 06:18 | 55.97857 | -2.93427 | 4117 ft | 220 kts | 316° |
| 2026-05-07 06:18 | 55.99003 | -2.95141 | 4033 ft | 211 kts | 316° |
| 2026-05-07 06:18 | 56.00133 | -2.96832 | 4009 ft | 212 kts | 316° |
| 2026-05-07 06:18 | 56.01259 | -2.98516 | 3993 ft | 210 kts | 316° |
| 2026-05-07 06:19 | 56.02379 | -3.00193 | 3994 ft | 210 kts | 316° |
| 2026-05-07 06:19 | 56.03525 | -3.01909 | 3633 ft | 217 kts | 316° |
| 2026-05-07 06:19 | 56.04655 | -3.03629 | 3448 ft | 209 kts | 310° |
| 2026-05-07 06:19 | 56.05252 | -3.05810 | 3302 ft | 191 kts | 266° |
| 2026-05-07 06:20 | 56.04842 | -3.07982 | 3257 ft | 187 kts | 237° |
| 2026-05-07 06:20 | 56.04191 | -3.10039 | 3148 ft | 192 kts | 239° |
| 2026-05-07 06:20 | 56.03529 | -3.12102 | 3034 ft | 189 kts | 237° |
| 2026-05-07 06:20 | 56.02848 | -3.14127 | 2951 ft | 190 kts | 237° |
| 2026-05-07 06:21 | 56.02168 | -3.16128 | 2705 ft | 184 kts | 236° |
| 2026-05-07 06:21 | 56.01529 | -3.18008 | 2475 ft | 169 kts | 236° |
| 2026-05-07 06:21 | 56.00948 | -3.19715 | 2249 ft | 157 kts | 235° |
| 2026-05-07 06:21 | 56.00402 | -3.21320 | 2034 ft | 145 kts | 235° |
| 2026-05-07 06:22 | 55.99897 | -3.22805 | 1899 ft | 141 kts | 234° |
| 2026-05-07 06:22 | 55.98883 | -3.25789 | 1475 ft | 138 kts | 235° |
| 2026-05-07 06:22 | 55.98377 | -3.27279 | 1270 ft | 139 kts | 235° |
| 2026-05-07 06:23 | 55.97870 | -3.28772 | 1077 ft | 143 kts | 236° |
| 2026-05-07 06:23 | 55.97351 | -3.30304 | 857 ft | 146 kts | 237° |
| 2026-05-07 06:23 | 55.96835 | -3.31864 | 654 ft | 148 kts | 240° |
| 2026-05-07 06:23 | 55.96274 | -3.33418 | 431 ft | 147 kts | 231° |
| 2026-05-07 06:24 | 55.95754 | -3.34946 | 239 ft | 143 kts | 237° |
| 2026-05-07 06:24 | 55.95260 | -3.36433 | 110 ft | 133 kts | 241° |
| 2026-05-07 06:24 | 55.94901 | -3.37529 | 110 ft | 73 kts | 239° |
| 2026-05-07 06:24 | 55.94753 | -3.38001 | 114 ft | 24 kts | 240° |
| 2026-05-07 06:25 | 55.94661 | -3.38239 | 110 ft | 23 kts | 237° |
| 2026-05-07 06:25 | 55.94584 | -3.38479 | 111 ft | 22 kts | 238° |
| 2026-05-07 06:25 | 55.94520 | -3.38660 | 112 ft | 11 kts | 237° |
| 2026-05-07 06:25 | 55.94479 | -3.38775 | 113 ft | 11 kts | 237° |
| 2026-05-07 06:26 | 55.94442 | -3.38886 | 112 ft | 10 kts | 239° |
| 2026-05-07 06:26 | 55.94405 | -3.38954 | 106 ft | 8 kts | 206° |
| 2026-05-07 06:26 | 55.94354 | -3.38931 | 112 ft | 9 kts | 133° |
| 2026-05-07 06:26 | 55.94296 | -3.38859 | 113 ft | 9 kts | 141° |
| 2026-05-07 06:27 | 55.94298 | -3.38745 | 114 ft | 10 kts | 66° |
| 2026-05-07 06:27 | 55.94334 | -3.38633 | 114 ft | 10 kts | 57° |
| 2026-05-07 06:27 | 55.94371 | -3.38530 | 113 ft | 10 kts | 57° |
| 2026-05-07 06:27 | 55.94407 | -3.38429 | 113 ft | 10 kts | 57° |
| 2026-05-07 06:28 | 55.94437 | -3.38326 | 113 ft | 9 kts | 63° |
| 2026-05-07 06:28 | 55.94470 | -3.38226 | 114 ft | 9 kts | 55° |
| 2026-05-07 06:28 | 55.94505 | -3.38135 | 112 ft | 9 kts | 55° |
| 2026-05-07 06:28 | 55.94539 | -3.38040 | 114 ft | 10 kts | 60° |
| 2026-05-07 06:29 | 55.94578 | -3.37923 | 115 ft | 12 kts | 59° |
| 2026-05-07 06:29 | 55.94625 | -3.37782 | 114 ft | 14 kts | 59° |
| 2026-05-07 06:29 | 55.94680 | -3.37620 | 114 ft | 16 kts | 59° |
| 2026-05-07 06:29 | 55.94741 | -3.37438 | 115 ft | 18 kts | 59° |
| 2026-05-07 06:30 | 55.94808 | -3.37242 | 114 ft | 18 kts | 58° |
| 2026-05-07 06:30 | 55.94872 | -3.37055 | 113 ft | 16 kts | 57° |
| 2026-05-07 06:30 | 55.94917 | -3.36935 | 115 ft | 0 kts | 61° |